sensor_id;sensor_type;location;lat;lon;timestamp;temperature;humidity
78315;SHT31;68596;52.080;4.662;2024-03-17T00:00:18;9.75;65.59
78315;SHT31;68596;52.080;4.662;2024-03-17T00:03:02;9.78;65.84
78315;SHT31;68596;52.080;4.662;2024-03-17T00:05:46;9.75;66.29
78315;SHT31;68596;52.080;4.662;2024-03-17T00:08:30;9.80;66.28
78315;SHT31;68596;52.080;4.662;2024-03-17T00:11:14;9.85;66.16
78315;SHT31;68596;52.080;4.662;2024-03-17T00:13:58;9.88;66.18
78315;SHT31;68596;52.080;4.662;2024-03-17T00:16:43;9.88;66.00
78315;SHT31;68596;52.080;4.662;2024-03-17T00:19:27;9.80;66.13
78315;SHT31;68596;52.080;4.662;2024-03-17T00:22:11;9.78;66.77
78315;SHT31;68596;52.080;4.662;2024-03-17T00:24:57;9.75;66.66
78315;SHT31;68596;52.080;4.662;2024-03-17T00:27:41;9.74;66.87
78315;SHT31;68596;52.080;4.662;2024-03-17T00:30:28;9.71;67.12
78315;SHT31;68596;52.080;4.662;2024-03-17T00:33:13;9.73;67.31
78315;SHT31;68596;52.080;4.662;2024-03-17T00:35:59;9.78;67.14
78315;SHT31;68596;52.080;4.662;2024-03-17T00:38:43;9.78;67.15
78315;SHT31;68596;52.080;4.662;2024-03-17T00:41:27;9.77;67.26
78315;SHT31;68596;52.080;4.662;2024-03-17T00:44:11;9.74;67.62
78315;SHT31;68596;52.080;4.662;2024-03-17T00:46:55;9.75;67.51
78315;SHT31;68596;52.080;4.662;2024-03-17T00:49:39;9.70;67.68
78315;SHT31;68596;52.080;4.662;2024-03-17T00:52:24;9.65;67.82
78315;SHT31;68596;52.080;4.662;2024-03-17T00:55:08;9.73;67.89
78315;SHT31;68596;52.080;4.662;2024-03-17T00:57:54;9.80;67.92
78315;SHT31;68596;52.080;4.662;2024-03-17T01:00:38;9.81;67.69
78315;SHT31;68596;52.080;4.662;2024-03-17T01:03:22;9.75;68.24
78315;SHT31;68596;52.080;4.662;2024-03-17T01:06:07;9.74;67.83
78315;SHT31;68596;52.080;4.662;2024-03-17T01:08:51;9.75;67.97
78315;SHT31;68596;52.080;4.662;2024-03-17T01:11:37;9.77;68.12
78315;SHT31;68596;52.080;4.662;2024-03-17T01:14:22;9.80;67.75
78315;SHT31;68596;52.080;4.662;2024-03-17T01:17:07;9.87;67.75
78315;SHT31;68596;52.080;4.662;2024-03-17T01:19:51;9.84;67.79
78315;SHT31;68596;52.080;4.662;2024-03-17T01:22:35;9.84;67.68
78315;SHT31;68596;52.080;4.662;2024-03-17T01:25:19;9.88;67.66
78315;SHT31;68596;52.080;4.662;2024-03-17T01:28:04;9.90;67.43
78315;SHT31;68596;52.080;4.662;2024-03-17T01:30:48;9.97;67.21
78315;SHT31;68596;52.080;4.662;2024-03-17T01:33:32;9.99;66.43
78315;SHT31;68596;52.080;4.662;2024-03-17T01:36:16;10.06;66.57
78315;SHT31;68596;52.080;4.662;2024-03-17T01:39:00;10.03;65.92
78315;SHT31;68596;52.080;4.662;2024-03-17T01:41:46;10.08;66.25
78315;SHT31;68596;52.080;4.662;2024-03-17T01:44:30;10.12;65.58
78315;SHT31;68596;52.080;4.662;2024-03-17T01:47:14;10.09;65.70
78315;SHT31;68596;52.080;4.662;2024-03-17T01:49:58;10.06;65.53
78315;SHT31;68596;52.080;4.662;2024-03-17T01:52:42;10.08;65.85
78315;SHT31;68596;52.080;4.662;2024-03-17T01:55:28;10.06;65.46
78315;SHT31;68596;52.080;4.662;2024-03-17T01:58:12;10.01;65.58
78315;SHT31;68596;52.080;4.662;2024-03-17T02:00:57;9.99;65.76
78315;SHT31;68596;52.080;4.662;2024-03-17T02:03:41;10.01;66.05
78315;SHT31;68596;52.080;4.662;2024-03-17T02:06:25;10.06;66.12
78315;SHT31;68596;52.080;4.662;2024-03-17T02:09:09;10.01;66.16
78315;SHT31;68596;52.080;4.662;2024-03-17T02:11:54;10.01;66.14
78315;SHT31;68596;52.080;4.662;2024-03-17T02:14:38;10.05;66.03
78315;SHT31;68596;52.080;4.662;2024-03-17T02:17:22;10.02;66.13
78315;SHT31;68596;52.080;4.662;2024-03-17T02:20:09;10.05;66.24
78315;SHT31;68596;52.080;4.662;2024-03-17T02:22:55;9.95;66.41
78315;SHT31;68596;52.080;4.662;2024-03-17T02:25:39;9.98;66.48
78315;SHT31;68596;52.080;4.662;2024-03-17T02:28:24;10.01;66.30
78315;SHT31;68596;52.080;4.662;2024-03-17T02:31:09;9.98;66.69
78315;SHT31;68596;52.080;4.662;2024-03-17T02:33:54;9.99;66.57
78315;SHT31;68596;52.080;4.662;2024-03-17T02:36:38;10.01;66.61
78315;SHT31;68596;52.080;4.662;2024-03-17T02:39:22;9.94;66.52
78315;SHT31;68596;52.080;4.662;2024-03-17T02:42:18;9.94;66.84
78315;SHT31;68596;52.080;4.662;2024-03-17T02:45:03;9.90;67.03
78315;SHT31;68596;52.080;4.662;2024-03-17T02:47:47;9.90;67.15
78315;SHT31;68596;52.080;4.662;2024-03-17T02:50:33;9.94;67.29
78315;SHT31;68596;52.080;4.662;2024-03-17T02:53:18;9.94;67.05
78315;SHT31;68596;52.080;4.662;2024-03-17T02:56:03;9.92;67.62
78315;SHT31;68596;52.080;4.662;2024-03-17T02:58:48;9.94;67.16
78315;SHT31;68596;52.080;4.662;2024-03-17T03:01:32;9.94;67.78
78315;SHT31;68596;52.080;4.662;2024-03-17T03:04:17;9.99;67.42
78315;SHT31;68596;52.080;4.662;2024-03-17T03:07:01;9.92;67.28
78315;SHT31;68596;52.080;4.662;2024-03-17T03:09:45;9.88;67.62
78315;SHT31;68596;52.080;4.662;2024-03-17T03:12:29;9.95;67.71
78315;SHT31;68596;52.080;4.662;2024-03-17T03:15:13;10.01;67.34
78315;SHT31;68596;52.080;4.662;2024-03-17T03:17:57;9.98;67.63
78315;SHT31;68596;52.080;4.662;2024-03-17T03:20:41;9.97;67.49
78315;SHT31;68596;52.080;4.662;2024-03-17T03:23:25;9.98;67.73
78315;SHT31;68596;52.080;4.662;2024-03-17T03:26:11;9.95;67.64
78315;SHT31;68596;52.080;4.662;2024-03-17T03:28:55;9.95;67.57
78315;SHT31;68596;52.080;4.662;2024-03-17T03:31:40;9.91;68.06
78315;SHT31;68596;52.080;4.662;2024-03-17T03:34:25;9.90;68.20
78315;SHT31;68596;52.080;4.662;2024-03-17T03:37:09;9.88;68.08
78315;SHT31;68596;52.080;4.662;2024-03-17T03:39:55;9.84;68.19
78315;SHT31;68596;52.080;4.662;2024-03-17T03:42:39;9.88;68.19
78315;SHT31;68596;52.080;4.662;2024-03-17T03:45:23;9.82;67.95
78315;SHT31;68596;52.080;4.662;2024-03-17T03:48:10;9.85;68.18
78315;SHT31;68596;52.080;4.662;2024-03-17T03:50:54;9.88;67.90
78315;SHT31;68596;52.080;4.662;2024-03-17T03:53:38;9.90;67.75
78315;SHT31;68596;52.080;4.662;2024-03-17T03:56:23;9.91;67.58
78315;SHT31;68596;52.080;4.662;2024-03-17T03:59:09;9.97;67.26
78315;SHT31;68596;52.080;4.662;2024-03-17T04:01:53;9.94;67.43
78315;SHT31;68596;52.080;4.662;2024-03-17T04:04:38;9.98;67.86
78315;SHT31;68596;52.080;4.662;2024-03-17T04:07:22;9.98;67.37
78315;SHT31;68596;52.080;4.662;2024-03-17T04:10:06;9.95;67.70
78315;SHT31;68596;52.080;4.662;2024-03-17T04:12:51;9.92;67.89
78315;SHT31;68596;52.080;4.662;2024-03-17T04:15:35;9.92;67.87
78315;SHT31;68596;52.080;4.662;2024-03-17T04:18:19;9.81;68.29
78315;SHT31;68596;52.080;4.662;2024-03-17T04:21:05;9.81;68.61
78315;SHT31;68596;52.080;4.662;2024-03-17T04:23:50;9.81;68.53
78315;SHT31;68596;52.080;4.662;2024-03-17T04:26:34;9.88;67.95
78315;SHT31;68596;52.080;4.662;2024-03-17T04:29:18;9.95;67.80
78315;SHT31;68596;52.080;4.662;2024-03-17T04:32:02;9.88;67.64
78315;SHT31;68596;52.080;4.662;2024-03-17T04:34:49;9.87;67.33
78315;SHT31;68596;52.080;4.662;2024-03-17T04:37:33;9.84;67.48
78315;SHT31;68596;52.080;4.662;2024-03-17T04:40:22;9.81;67.97
78315;SHT31;68596;52.080;4.662;2024-03-17T04:43:07;9.82;67.87
78315;SHT31;68596;52.080;4.662;2024-03-17T04:45:59;9.80;68.32
78315;SHT31;68596;52.080;4.662;2024-03-17T04:48:44;9.78;68.23
78315;SHT31;68596;52.080;4.662;2024-03-17T04:51:29;9.80;67.91
78315;SHT31;68596;52.080;4.662;2024-03-17T04:54:13;9.77;67.75
78315;SHT31;68596;52.080;4.662;2024-03-17T04:56:57;9.75;68.02
78315;SHT31;68596;52.080;4.662;2024-03-17T04:59:42;9.67;68.37
78315;SHT31;68596;52.080;4.662;2024-03-17T05:02:26;9.61;68.38
78315;SHT31;68596;52.080;4.662;2024-03-17T05:05:11;9.65;68.35
78315;SHT31;68596;52.080;4.662;2024-03-17T05:07:55;9.71;68.09
78315;SHT31;68596;52.080;4.662;2024-03-17T05:10:39;9.70;67.93
78315;SHT31;68596;52.080;4.662;2024-03-17T05:13:25;9.67;68.37
78315;SHT31;68596;52.080;4.662;2024-03-17T05:16:10;9.65;68.30
78315;SHT31;68596;52.080;4.662;2024-03-17T05:18:55;9.65;68.32
78315;SHT31;68596;52.080;4.662;2024-03-17T05:21:39;9.67;68.34
78315;SHT31;68596;52.080;4.662;2024-03-17T05:24:23;9.68;68.39
78315;SHT31;68596;52.080;4.662;2024-03-17T05:27:07;9.74;68.16
78315;SHT31;68596;52.080;4.662;2024-03-17T05:29:51;9.77;68.00
78315;SHT31;68596;52.080;4.662;2024-03-17T05:32:35;9.80;67.96
78315;SHT31;68596;52.080;4.662;2024-03-17T05:35:19;9.75;68.05
78315;SHT31;68596;52.080;4.662;2024-03-17T05:38:03;9.71;68.12
78315;SHT31;68596;52.080;4.662;2024-03-17T05:40:57;9.61;68.52
78315;SHT31;68596;52.080;4.662;2024-03-17T05:43:43;9.64;68.49
78315;SHT31;68596;52.080;4.662;2024-03-17T05:46:27;9.65;68.47
78315;SHT31;68596;52.080;4.662;2024-03-17T05:49:12;9.65;68.31
78315;SHT31;68596;52.080;4.662;2024-03-17T05:51:56;9.62;68.47
78315;SHT31;68596;52.080;4.662;2024-03-17T05:54:40;9.68;68.48
78315;SHT31;68596;52.080;4.662;2024-03-17T05:57:24;9.70;68.26
78315;SHT31;68596;52.080;4.662;2024-03-17T06:00:09;9.60;68.71
78315;SHT31;68596;52.080;4.662;2024-03-17T06:02:53;9.57;69.16
78315;SHT31;68596;52.080;4.662;2024-03-17T06:05:39;9.50;69.44
78315;SHT31;68596;52.080;4.662;2024-03-17T06:08:24;9.50;69.69
78315;SHT31;68596;52.080;4.662;2024-03-17T06:11:10;9.51;69.53
78315;SHT31;68596;52.080;4.662;2024-03-17T06:13:54;9.51;69.82
78315;SHT31;68596;52.080;4.662;2024-03-17T06:16:39;9.57;69.76
78315;SHT31;68596;52.080;4.662;2024-03-17T06:19:23;9.62;70.07
78315;SHT31;68596;52.080;4.662;2024-03-17T06:22:07;9.60;70.01
78315;SHT31;68596;52.080;4.662;2024-03-17T06:24:52;9.50;70.34
78315;SHT31;68596;52.080;4.662;2024-03-17T06:27:36;9.51;70.63
78315;SHT31;68596;52.080;4.662;2024-03-17T06:30:20;9.50;70.55
78315;SHT31;68596;52.080;4.662;2024-03-17T06:33:05;9.47;70.67
78315;SHT31;68596;52.080;4.662;2024-03-17T06:35:49;9.48;70.75
78315;SHT31;68596;52.080;4.662;2024-03-17T06:38:33;9.61;70.74
78315;SHT31;68596;52.080;4.662;2024-03-17T06:41:18;9.73;70.36
78315;SHT31;68596;52.080;4.662;2024-03-17T06:44:02;9.77;70.24
78315;SHT31;68596;52.080;4.662;2024-03-17T06:46:46;9.75;70.13
78315;SHT31;68596;52.080;4.662;2024-03-17T06:49:30;9.80;70.37
78315;SHT31;68596;52.080;4.662;2024-03-17T06:52:14;9.85;70.08
78315;SHT31;68596;52.080;4.662;2024-03-17T06:54:58;9.97;70.04
78315;SHT31;68596;52.080;4.662;2024-03-17T06:57:42;9.97;69.54
78315;SHT31;68596;52.080;4.662;2024-03-17T07:00:30;10.01;69.50
78315;SHT31;68596;52.080;4.662;2024-03-17T07:03:14;9.95;70.13
78315;SHT31;68596;52.080;4.662;2024-03-17T07:06:00;9.94;69.99
78315;SHT31;68596;52.080;4.662;2024-03-17T07:08:46;9.92;70.39
78315;SHT31;68596;52.080;4.662;2024-03-17T07:11:30;10.01;70.28
78315;SHT31;68596;52.080;4.662;2024-03-17T07:14:15;10.06;69.88
78315;SHT31;68596;52.080;4.662;2024-03-17T07:16:59;10.05;70.16
78315;SHT31;68596;52.080;4.662;2024-03-17T07:19:43;10.11;70.21
78315;SHT31;68596;52.080;4.662;2024-03-17T07:22:27;10.11;70.26
78315;SHT31;68596;52.080;4.662;2024-03-17T07:25:12;10.22;70.13
78315;SHT31;68596;52.080;4.662;2024-03-17T07:27:56;10.29;69.61
78315;SHT31;68596;52.080;4.662;2024-03-17T07:30:46;10.35;69.83
78315;SHT31;68596;52.080;4.662;2024-03-17T07:33:30;10.48;69.21
78315;SHT31;68596;52.080;4.662;2024-03-17T07:36:14;10.59;68.80
78315;SHT31;68596;52.080;4.662;2024-03-17T07:38:58;10.70;68.34
78315;SHT31;68596;52.080;4.662;2024-03-17T07:41:42;10.80;67.81
78315;SHT31;68596;52.080;4.662;2024-03-17T07:44:28;10.79;68.22
78315;SHT31;68596;52.080;4.662;2024-03-17T07:47:17;10.79;68.09
78315;SHT31;68596;52.080;4.662;2024-03-17T07:50:04;10.79;67.69
78315;SHT31;68596;52.080;4.662;2024-03-17T07:52:49;10.74;68.02
78315;SHT31;68596;52.080;4.662;2024-03-17T07:55:34;10.73;68.10
78315;SHT31;68596;52.080;4.662;2024-03-17T07:58:18;10.69;68.23
78315;SHT31;68596;52.080;4.662;2024-03-17T08:01:04;10.73;68.30
78315;SHT31;68596;52.080;4.662;2024-03-17T08:03:48;10.80;68.46
78315;SHT31;68596;52.080;4.662;2024-03-17T08:06:41;10.83;68.17
78315;SHT31;68596;52.080;4.662;2024-03-17T08:09:25;10.87;68.40
78315;SHT31;68596;52.080;4.662;2024-03-17T08:12:09;10.92;68.17
78315;SHT31;68596;52.080;4.662;2024-03-17T08:14:55;10.94;68.44
78315;SHT31;68596;52.080;4.662;2024-03-17T08:17:39;10.89;68.17
78315;SHT31;68596;52.080;4.662;2024-03-17T08:20:23;10.87;68.32
78315;SHT31;68596;52.080;4.662;2024-03-17T08:23:08;10.92;68.32
78315;SHT31;68596;52.080;4.662;2024-03-17T08:25:53;10.96;68.42
78315;SHT31;68596;52.080;4.662;2024-03-17T08:28:38;11.00;68.57
78315;SHT31;68596;52.080;4.662;2024-03-17T08:31:23;11.07;68.13
78315;SHT31;68596;52.080;4.662;2024-03-17T08:34:07;11.06;68.08
78315;SHT31;68596;52.080;4.662;2024-03-17T08:36:51;10.99;68.54
78315;SHT31;68596;52.080;4.662;2024-03-17T08:39:35;10.92;68.63
78315;SHT31;68596;52.080;4.662;2024-03-17T08:42:19;10.94;68.88
78315;SHT31;68596;52.080;4.662;2024-03-17T08:45:04;10.96;69.12
78315;SHT31;68596;52.080;4.662;2024-03-17T08:47:51;10.97;69.26
78315;SHT31;68596;52.080;4.662;2024-03-17T08:50:36;11.03;68.82
78315;SHT31;68596;52.080;4.662;2024-03-17T08:53:22;11.00;69.42
78315;SHT31;68596;52.080;4.662;2024-03-17T08:56:06;10.99;69.21
78315;SHT31;68596;52.080;4.662;2024-03-17T08:58:50;10.96;68.99
78315;SHT31;68596;52.080;4.662;2024-03-17T09:01:35;10.96;69.43
78315;SHT31;68596;52.080;4.662;2024-03-17T09:04:19;10.97;69.70
78315;SHT31;68596;52.080;4.662;2024-03-17T09:07:04;11.06;69.24
78315;SHT31;68596;52.080;4.662;2024-03-17T09:09:48;11.10;68.99
78315;SHT31;68596;52.080;4.662;2024-03-17T09:12:32;11.17;68.79
78315;SHT31;68596;52.080;4.662;2024-03-17T09:15:17;11.18;69.12
78315;SHT31;68596;52.080;4.662;2024-03-17T09:18:01;11.23;69.72
78315;SHT31;68596;52.080;4.662;2024-03-17T09:20:56;11.32;68.78
78315;SHT31;68596;52.080;4.662;2024-03-17T09:23:40;11.39;68.55
78315;SHT31;68596;52.080;4.662;2024-03-17T09:26:24;11.48;68.72
78315;SHT31;68596;52.080;4.662;2024-03-17T09:29:08;11.62;68.44
78315;SHT31;68596;52.080;4.662;2024-03-17T09:31:52;11.78;67.83
78315;SHT31;68596;52.080;4.662;2024-03-17T09:34:36;11.81;67.53
78315;SHT31;68596;52.080;4.662;2024-03-17T09:37:20;11.83;67.28
78315;SHT31;68596;52.080;4.662;2024-03-17T09:40:04;11.81;67.94
78315;SHT31;68596;52.080;4.662;2024-03-17T09:42:50;11.93;67.83
78315;SHT31;68596;52.080;4.662;2024-03-17T09:45:35;11.98;67.58
78315;SHT31;68596;52.080;4.662;2024-03-17T09:48:20;12.00;67.54
78315;SHT31;68596;52.080;4.662;2024-03-17T09:51:04;12.06;67.75
78315;SHT31;68596;52.080;4.662;2024-03-17T09:53:50;12.18;67.47
78315;SHT31;68596;52.080;4.662;2024-03-17T09:56:34;12.23;67.36
78315;SHT31;68596;52.080;4.662;2024-03-17T09:59:18;12.30;67.18
78315;SHT31;68596;52.080;4.662;2024-03-17T10:02:16;12.25;67.25
78315;SHT31;68596;52.080;4.662;2024-03-17T10:05:02;12.10;67.66
78315;SHT31;68596;52.080;4.662;2024-03-17T10:07:46;12.03;68.08
78315;SHT31;68596;52.080;4.662;2024-03-17T10:10:30;11.99;68.19
78315;SHT31;68596;52.080;4.662;2024-03-17T10:13:14;11.98;68.59
78315;SHT31;68596;52.080;4.662;2024-03-17T10:15:58;12.09;68.36
78315;SHT31;68596;52.080;4.662;2024-03-17T10:18:42;12.16;68.84
78315;SHT31;68596;52.080;4.662;2024-03-17T10:21:27;12.32;68.43
78315;SHT31;68596;52.080;4.662;2024-03-17T10:24:25;12.50;68.17
78315;SHT31;68596;52.080;4.662;2024-03-17T10:27:10;12.59;68.22
78315;SHT31;68596;52.080;4.662;2024-03-17T10:29:56;12.57;68.41
78315;SHT31;68596;52.080;4.662;2024-03-17T10:32:40;12.61;68.58
78315;SHT31;68596;52.080;4.662;2024-03-17T10:35:32;12.77;67.54
78315;SHT31;68596;52.080;4.662;2024-03-17T10:38:16;12.90;67.00
78315;SHT31;68596;52.080;4.662;2024-03-17T10:41:01;12.98;66.99
78315;SHT31;68596;52.080;4.662;2024-03-17T10:43:45;13.05;67.53
78315;SHT31;68596;52.080;4.662;2024-03-17T10:46:29;13.19;66.66
78315;SHT31;68596;52.080;4.662;2024-03-17T10:49:16;13.29;66.83
78315;SHT31;68596;52.080;4.662;2024-03-17T10:52:06;13.36;66.04
78315;SHT31;68596;52.080;4.662;2024-03-17T10:54:55;13.44;66.14
78315;SHT31;68596;52.080;4.662;2024-03-17T10:57:46;13.44;66.39
78315;SHT31;68596;52.080;4.662;2024-03-17T11:00:34;13.52;65.79
78315;SHT31;68596;52.080;4.662;2024-03-17T11:03:19;13.41;66.56
78315;SHT31;68596;52.080;4.662;2024-03-17T11:06:05;13.29;67.10
78315;SHT31;68596;52.080;4.662;2024-03-17T11:08:50;13.34;66.90
78315;SHT31;68596;52.080;4.662;2024-03-17T11:11:35;13.38;66.94
78315;SHT31;68596;52.080;4.662;2024-03-17T11:14:21;13.44;66.92
78315;SHT31;68596;52.080;4.662;2024-03-17T11:17:18;13.45;66.62
78315;SHT31;68596;52.080;4.662;2024-03-17T11:20:15;13.45;66.92
78315;SHT31;68596;52.080;4.662;2024-03-17T11:23:01;13.38;67.56
78315;SHT31;68596;52.080;4.662;2024-03-17T11:25:52;13.26;67.59
78315;SHT31;68596;52.080;4.662;2024-03-17T11:37:40;13.42;67.88
78315;SHT31;68596;52.080;4.662;2024-03-17T11:40:25;13.46;67.56
78315;SHT31;68596;52.080;4.662;2024-03-17T11:43:17;13.52;67.67
78315;SHT31;68596;52.080;4.662;2024-03-17T11:46:01;13.58;68.36
78315;SHT31;68596;52.080;4.662;2024-03-17T11:48:45;13.63;68.33
78315;SHT31;68596;52.080;4.662;2024-03-17T11:51:29;13.65;69.29
78315;SHT31;68596;52.080;4.662;2024-03-17T11:54:19;13.66;69.54
78315;SHT31;68596;52.080;4.662;2024-03-17T11:57:21;13.62;69.86
78315;SHT31;68596;52.080;4.662;2024-03-17T12:00:19;13.63;69.69
78315;SHT31;68596;52.080;4.662;2024-03-17T12:03:04;13.63;69.96
78315;SHT31;68596;52.080;4.662;2024-03-17T12:05:48;13.63;69.47
78315;SHT31;68596;52.080;4.662;2024-03-17T12:08:32;13.66;69.57
78315;SHT31;68596;52.080;4.662;2024-03-17T12:11:18;13.65;69.80
78315;SHT31;68596;52.080;4.662;2024-03-17T12:14:29;13.65;69.75
78315;SHT31;68596;52.080;4.662;2024-03-17T12:17:21;13.62;70.97
78315;SHT31;68596;52.080;4.662;2024-03-17T12:20:17;13.69;70.91
78315;SHT31;68596;52.080;4.662;2024-03-17T12:23:02;13.72;70.68
78315;SHT31;68596;52.080;4.662;2024-03-17T12:25:47;13.80;71.01
78315;SHT31;68596;52.080;4.662;2024-03-17T12:28:31;13.87;70.83
78315;SHT31;68596;52.080;4.662;2024-03-17T12:31:15;13.93;70.66
78315;SHT31;68596;52.080;4.662;2024-03-17T12:34:01;13.95;70.73
78315;SHT31;68596;52.080;4.662;2024-03-17T12:36:47;14.06;70.61
78315;SHT31;68596;52.080;4.662;2024-03-17T12:39:34;14.16;70.24
78315;SHT31;68596;52.080;4.662;2024-03-17T12:42:27;14.26;69.52
78315;SHT31;68596;52.080;4.662;2024-03-17T12:45:11;14.33;69.93
78315;SHT31;68596;52.080;4.662;2024-03-17T12:47:55;14.49;68.85
78315;SHT31;68596;52.080;4.662;2024-03-17T12:50:47;14.57;68.70
78315;SHT31;68596;52.080;4.662;2024-03-17T12:53:31;14.64;68.67
78315;SHT31;68596;52.080;4.662;2024-03-17T12:56:23;14.74;68.33
78315;SHT31;68596;52.080;4.662;2024-03-17T12:59:39;14.72;68.69
78315;SHT31;68596;52.080;4.662;2024-03-17T13:02:43;14.69;68.85
78315;SHT31;68596;52.080;4.662;2024-03-17T13:05:28;14.77;68.76
78315;SHT31;68596;52.080;4.662;2024-03-17T13:08:13;14.79;68.85
78315;SHT31;68596;52.080;4.662;2024-03-17T13:10:59;14.87;68.90
78315;SHT31;68596;52.080;4.662;2024-03-17T13:13:46;14.88;68.70
78315;SHT31;68596;52.080;4.662;2024-03-17T13:16:30;15.03;68.58
78315;SHT31;68596;52.080;4.662;2024-03-17T13:19:15;15.13;68.17
78315;SHT31;68596;52.080;4.662;2024-03-17T13:21:59;15.26;68.73
78315;SHT31;68596;52.080;4.662;2024-03-17T13:24:44;15.40;68.60
78315;SHT31;68596;52.080;4.662;2024-03-17T13:27:28;15.47;68.25
78315;SHT31;68596;52.080;4.662;2024-03-17T13:30:13;15.49;68.12
78315;SHT31;68596;52.080;4.662;2024-03-17T13:32:58;15.53;67.72
78315;SHT31;68596;52.080;4.662;2024-03-17T13:35:42;15.50;67.59
78315;SHT31;68596;52.080;4.662;2024-03-17T13:38:26;15.42;67.64
78315;SHT31;68596;52.080;4.662;2024-03-17T13:41:12;15.36;68.16
78315;SHT31;68596;52.080;4.662;2024-03-17T13:43:56;15.39;67.39
78315;SHT31;68596;52.080;4.662;2024-03-17T13:46:41;15.32;67.98
78315;SHT31;68596;52.080;4.662;2024-03-17T13:49:25;15.32;67.80
78315;SHT31;68596;52.080;4.662;2024-03-17T13:52:10;15.36;67.88
78315;SHT31;68596;52.080;4.662;2024-03-17T13:54:54;15.33;67.43
78315;SHT31;68596;52.080;4.662;2024-03-17T13:57:38;15.26;67.41
78315;SHT31;68596;52.080;4.662;2024-03-17T14:00:24;15.19;67.85
78315;SHT31;68596;52.080;4.662;2024-03-17T14:03:09;15.20;67.53
78315;SHT31;68596;52.080;4.662;2024-03-17T14:05:54;15.18;67.48
78315;SHT31;68596;52.080;4.662;2024-03-17T14:08:38;15.12;67.38
78315;SHT31;68596;52.080;4.662;2024-03-17T14:11:22;15.09;67.43
78315;SHT31;68596;52.080;4.662;2024-03-17T14:14:06;15.02;67.56
78315;SHT31;68596;52.080;4.662;2024-03-17T14:16:51;15.05;67.86
78315;SHT31;68596;52.080;4.662;2024-03-17T14:19:35;15.11;67.58
78315;SHT31;68596;52.080;4.662;2024-03-17T14:22:19;15.15;67.49
78315;SHT31;68596;52.080;4.662;2024-03-17T14:25:05;15.18;67.86
78315;SHT31;68596;52.080;4.662;2024-03-17T14:27:50;15.20;67.88
78315;SHT31;68596;52.080;4.662;2024-03-17T14:30:34;15.18;67.64
78315;SHT31;68596;52.080;4.662;2024-03-17T14:33:18;15.23;67.60
78315;SHT31;68596;52.080;4.662;2024-03-17T14:36:02;15.29;67.17
78315;SHT31;68596;52.080;4.662;2024-03-17T14:38:46;15.20;66.96
78315;SHT31;68596;52.080;4.662;2024-03-17T14:41:30;15.22;67.19
78315;SHT31;68596;52.080;4.662;2024-03-17T14:44:15;15.23;67.47
78315;SHT31;68596;52.080;4.662;2024-03-17T14:46:59;15.29;67.65
78315;SHT31;68596;52.080;4.662;2024-03-17T14:49:44;15.23;68.20
78315;SHT31;68596;52.080;4.662;2024-03-17T14:52:29;15.29;68.96
78315;SHT31;68596;52.080;4.662;2024-03-17T14:55:13;15.30;68.48
78315;SHT31;68596;52.080;4.662;2024-03-17T14:57:59;15.29;69.10
78315;SHT31;68596;52.080;4.662;2024-03-17T15:00:46;15.28;69.15
78315;SHT31;68596;52.080;4.662;2024-03-17T15:03:31;15.28;69.46
78315;SHT31;68596;52.080;4.662;2024-03-17T15:06:15;15.32;69.40
78315;SHT31;68596;52.080;4.662;2024-03-17T15:09:02;15.28;69.23
78315;SHT31;68596;52.080;4.662;2024-03-17T15:11:47;15.30;69.55
78315;SHT31;68596;52.080;4.662;2024-03-17T15:14:31;15.25;69.22
78315;SHT31;68596;52.080;4.662;2024-03-17T15:17:16;15.18;69.13
78315;SHT31;68596;52.080;4.662;2024-03-17T15:19:59;15.22;69.32
78315;SHT31;68596;52.080;4.662;2024-03-17T15:22:46;15.26;69.96
78315;SHT31;68596;52.080;4.662;2024-03-17T15:25:30;15.25;69.85
78315;SHT31;68596;52.080;4.662;2024-03-17T15:28:14;15.20;70.20
78315;SHT31;68596;52.080;4.662;2024-03-17T15:30:59;15.18;71.18
78315;SHT31;68596;52.080;4.662;2024-03-17T15:33:44;15.23;71.21
78315;SHT31;68596;52.080;4.662;2024-03-17T15:36:28;15.16;71.74
78315;SHT31;68596;52.080;4.662;2024-03-17T15:39:14;15.19;71.33
78315;SHT31;68596;52.080;4.662;2024-03-17T15:41:58;15.05;71.32
78315;SHT31;68596;52.080;4.662;2024-03-17T15:44:42;15.01;71.65
78315;SHT31;68596;52.080;4.662;2024-03-17T15:47:26;14.98;71.48
78315;SHT31;68596;52.080;4.662;2024-03-17T15:50:10;14.96;71.61
78315;SHT31;68596;52.080;4.662;2024-03-17T15:52:54;14.89;71.97
78315;SHT31;68596;52.080;4.662;2024-03-17T15:55:38;14.84;72.26
78315;SHT31;68596;52.080;4.662;2024-03-17T15:58:23;14.85;71.82
78315;SHT31;68596;52.080;4.662;2024-03-17T16:01:08;14.74;71.99
78315;SHT31;68596;52.080;4.662;2024-03-17T16:03:53;14.71;72.58
78315;SHT31;68596;52.080;4.662;2024-03-17T16:06:38;14.69;72.98
78315;SHT31;68596;52.080;4.662;2024-03-17T16:09:23;14.67;72.48
78315;SHT31;68596;52.080;4.662;2024-03-17T16:12:09;14.56;72.67
78315;SHT31;68596;52.080;4.662;2024-03-17T16:14:53;14.49;73.30
78315;SHT31;68596;52.080;4.662;2024-03-17T16:17:38;14.51;73.27
78315;SHT31;68596;52.080;4.662;2024-03-17T16:23:36;14.51;73.63
78315;SHT31;68596;52.080;4.662;2024-03-17T16:26:22;14.51;73.19
78315;SHT31;68596;52.080;4.662;2024-03-17T16:29:07;14.48;73.47
78315;SHT31;68596;52.080;4.662;2024-03-17T16:31:52;14.41;74.00
78315;SHT31;68596;52.080;4.662;2024-03-17T16:34:36;14.36;73.64
78315;SHT31;68596;52.080;4.662;2024-03-17T16:37:21;14.30;73.94
78315;SHT31;68596;52.080;4.662;2024-03-17T16:40:06;14.26;73.83
78315;SHT31;68596;52.080;4.662;2024-03-17T16:42:52;14.23;73.88
78315;SHT31;68596;52.080;4.662;2024-03-17T16:45:44;14.18;74.10
78315;SHT31;68596;52.080;4.662;2024-03-17T16:48:34;14.23;73.98
78315;SHT31;68596;52.080;4.662;2024-03-17T16:51:18;14.18;74.16
78315;SHT31;68596;52.080;4.662;2024-03-17T16:54:03;14.18;74.37
78315;SHT31;68596;52.080;4.662;2024-03-17T16:56:48;14.18;74.08
78315;SHT31;68596;52.080;4.662;2024-03-17T16:59:32;14.18;74.03
78315;SHT31;68596;52.080;4.662;2024-03-17T17:02:18;14.16;74.25
78315;SHT31;68596;52.080;4.662;2024-03-17T17:05:03;14.20;74.48
78315;SHT31;68596;52.080;4.662;2024-03-17T17:07:49;14.18;74.44
78315;SHT31;68596;52.080;4.662;2024-03-17T17:10:35;14.16;74.84
78315;SHT31;68596;52.080;4.662;2024-03-17T17:13:19;14.09;74.89
78315;SHT31;68596;52.080;4.662;2024-03-17T17:16:04;14.03;75.31
78315;SHT31;68596;52.080;4.662;2024-03-17T17:19:03;13.95;75.85
78315;SHT31;68596;52.080;4.662;2024-03-17T17:21:48;13.89;75.93
78315;SHT31;68596;52.080;4.662;2024-03-17T17:24:34;13.91;76.00
78315;SHT31;68596;52.080;4.662;2024-03-17T17:27:18;13.87;75.91
78315;SHT31;68596;52.080;4.662;2024-03-17T17:30:06;13.89;76.14
78315;SHT31;68596;52.080;4.662;2024-03-17T17:32:50;13.83;76.35
78315;SHT31;68596;52.080;4.662;2024-03-17T17:35:34;13.76;76.40
78315;SHT31;68596;52.080;4.662;2024-03-17T17:38:20;13.75;76.53
78315;SHT31;68596;52.080;4.662;2024-03-17T17:41:04;13.80;76.37
78315;SHT31;68596;52.080;4.662;2024-03-17T17:43:59;13.85;76.15